createdAt,value
2022-09-07T00:07:31.934Z,0
2022-09-07T00:22:33.958Z,1
2022-09-07T00:37:35.908Z,2
2022-09-07T00:52:37.783Z,0
2022-09-07T01:07:39.877Z,0
2022-09-07T01:22:41.861Z,0
2022-09-07T01:37:43.786Z,0
2022-09-07T01:52:45.703Z,0
2022-09-07T02:07:47.666Z,0
2022-09-07T02:22:49.637Z,0
2022-09-07T02:37:51.567Z,0
2022-09-07T02:52:53.488Z,0
2022-09-07T03:07:55.424Z,0
2022-09-07T03:22:57.353Z,0
2022-09-07T03:37:59.252Z,0
2022-09-07T03:53:01.276Z,0
2022-09-07T04:08:03.166Z,0
2022-09-07T04:23:05.128Z,0
2022-09-07T04:38:07.071Z,0
2022-09-07T04:53:09.012Z,0
2022-09-07T05:08:10.894Z,0
2022-09-07T05:23:12.816Z,0
2022-09-07T05:38:14.747Z,0
2022-09-07T05:53:16.675Z,0
2022-09-07T06:08:18.615Z,0
2022-09-07T06:23:20.551Z,0
2022-09-07T06:38:22.438Z,0
2022-09-07T06:53:35.835Z,0
2022-09-07T07:08:38.165Z,0
2022-09-07T07:23:40.164Z,0
2022-09-07T07:53:59.941Z,0
2022-09-07T08:09:02.170Z,0
2022-09-07T08:24:04.119Z,0
2022-09-07T08:39:06.049Z,0
2022-09-07T08:54:07.973Z,0
2022-09-07T09:09:09.914Z,0
2022-09-07T09:24:11.845Z,0
2022-09-07T09:39:13.756Z,0
2022-09-07T09:54:15.663Z,0
2022-09-07T10:09:17.561Z,0
2022-09-07T10:24:19.607Z,0
2022-09-07T10:39:21.637Z,0
2022-09-07T10:54:31.415Z,0
2022-09-07T11:09:33.694Z,0
2022-09-07T11:24:35.640Z,0
2022-09-07T11:39:37.776Z,0
2022-09-07T11:54:39.775Z,0
2022-09-07T12:09:41.772Z,0
2022-09-07T12:24:43.661Z,0
2022-09-07T12:39:45.677Z,0
2022-09-07T12:54:59.651Z,0
2022-09-07T13:10:12.257Z,0
2022-09-07T13:25:14.240Z,0
2022-09-07T13:40:16.256Z,0
2022-09-07T13:55:19.977Z,0
2022-09-07T14:10:24.739Z,0
2022-09-07T14:25:26.948Z,0
2022-09-07T14:40:30.055Z,0
2022-09-07T14:55:32.044Z,0
2022-09-07T15:10:34.041Z,0
2022-09-07T15:25:36.015Z,1
2022-09-07T15:40:37.938Z,0
2022-09-07T15:55:39.885Z,0
2022-09-07T16:10:41.812Z,1
2022-09-07T16:25:43.701Z,0
2022-09-07T16:40:45.688Z,2
2022-09-07T16:55:47.721Z,1
2022-09-07T17:10:49.629Z,2
2022-09-07T17:25:51.561Z,3
2022-09-07T17:40:54.874Z,3
2022-09-07T17:55:56.910Z,4
2022-09-07T18:26:30.788Z,2
2022-09-07T18:41:32.708Z,0
2022-09-07T18:56:34.616Z,0
2022-09-07T19:11:36.589Z,3
2022-09-07T19:26:38.511Z,5
2022-09-07T19:41:40.441Z,8
2022-09-07T19:56:42.391Z,9
2022-09-07T20:11:46.762Z,8
2022-09-07T20:26:48.970Z,6
2022-09-07T20:41:50.931Z,6
2022-09-07T20:56:52.847Z,5
2022-09-07T21:11:57.033Z,6
2022-09-07T21:26:59.222Z,4
2022-09-07T21:42:01.163Z,3
2022-09-07T21:57:03.199Z,2
2022-09-07T22:12:05.203Z,4
2022-09-07T22:27:07.152Z,5
2022-09-07T22:42:09.052Z,7
2022-09-07T22:57:10.954Z,6
2022-09-07T23:12:12.915Z,6
2022-09-07T23:27:14.837Z,8
2022-09-07T23:42:16.798Z,9
2022-09-07T23:57:18.689Z,9
